Time;durP1;ratioP1;P1;durP2;ratioP2;P2;SDS_P1;SDS_P2;PMS_P1;PMS_P2;Temp;Humidity;BMP_temperature;BMP_pressure;BME280_temperature;BME280_humidity;BME280_pressure;Samples;Min_cycle;Max_cycle;Signal;HPM_P1;HPM_P2
2022/01/26 00:00:42;;;;;;;6.10;3.83;;;20.10;38.20;;;;;;4917054;29;20135;-63
2022/01/26 00:06:02;;;;;;;5.50;4.57;;;20.10;38.50;;;;;;4912249;29;20071;-64
2022/01/26 00:08:30;;;;;;;4.97;3.38;;;20.10;38.60;;;;;;4919592;29;20087;-62
2022/01/26 00:10:57;;;;;;;3.70;3.28;;;20.10;38.50;;;;;;4919731;29;20044;-64
2022/01/26 00:13:25;;;;;;;4.18;3.47;;;20.10;38.50;;;;;;4909514;29;20062;-64
2022/01/26 00:15:53;;;;;;;5.88;3.50;;;20.20;38.60;;;;;;4936853;28;20035;-62
2022/01/26 00:18:22;;;;;;;3.55;3.08;;;20.20;38.60;;;;;;4941610;28;20126;-62
2022/01/26 00:20:54;;;;;;;4.53;4.13;;;20.20;38.60;;;;;;4944517;28;20051;-63
2022/01/26 00:23:36;;;;;;;5.13;4.40;;;20.30;38.60;;;;;;4945561;28;20574;-51
2022/01/26 00:26:09;;;;;;;3.95;3.55;;;20.30;38.50;;;;;;4937223;28;20044;-45
2022/01/26 00:28:57;;;;;;;2.40;2.20;;;20.30;38.50;;;;;;4945503;28;20039;-49
2022/01/26 00:38:34;;;;;;;3.80;3.50;;;20.30;38.30;;;;;;4939473;28;20043;-53
2022/01/26 00:39:56;;;;;;;3.40;2.70;;;20.40;38.50;;;;;;4944977;29;20054;-42
2022/01/26 00:42:23;;;;;;;3.53;3.17;;;20.40;38.90;;;;;;4947409;28;20078;-48
2022/01/26 00:44:51;;;;;;;2.30;1.85;;;20.40;39.80;;;;;;4949100;28;20142;-45
2022/01/26 00:47:18;;;;;;;2.55;2.35;;;20.30;40.50;;;;;;4949456;28;20047;-46
2022/01/26 00:49:45;;;;;;;3.90;2.55;;;20.20;40.90;;;;;;4949003;28;20049;-46
2022/01/26 00:52:19;;;;;;;4.38;2.58;;;20.10;41.30;;;;;;4949409;29;20932;-44
2022/01/26 00:54:46;;;;;;;3.38;3.08;;;20.00;41.60;;;;;;4949348;28;20057;-42
2022/01/26 00:57:14;;;;;;;2.58;2.08;;;19.90;41.90;;;;;;4946349;28;20129;-45
2022/01/26 00:59:41;;;;;;;3.25;2.45;;;19.80;42.20;;;;;;4950807;28;20449;-45
2022/01/26 01:02:10;;;;;;;5.82;3.00;;;19.60;42.50;;;;;;4947320;28;20047;-49
2022/01/26 01:04:37;;;;;;;3.60;2.42;;;19.60;42.90;;;;;;4946391;28;20044;-47
2022/01/26 01:07:06;;;;;;;9.20;2.72;;;19.50;43.10;;;;;;4950518;28;20684;-45
2022/01/26 01:09:34;;;;;;;3.67;2.75;;;19.40;43.30;;;;;;4949160;28;20071;-46
2022/01/26 01:12:03;;;;;;;4.10;2.75;;;19.30;43.30;;;;;;4948948;28;20385;-44
2022/01/26 01:14:36;;;;;;;7.55;2.53;;;19.30;43.50;;;;;;4948201;28;20118;-46
2022/01/26 01:17:05;;;;;;;3.00;2.05;;;19.20;43.70;;;;;;4948205;28;20054;-49
2022/01/26 01:19:38;;;;;;;2.90;2.15;;;19.10;43.90;;;;;;4949961;28;20154;-43
2022/01/26 01:30:24;;;;;;;6.78;3.55;;;18.80;44.40;;;;;;4875284;29;20136;-42
2022/01/26 01:32:54;;;;;;;4.82;2.88;;;18.70;44.50;;;;;;4872585;29;20140;-43
2022/01/26 01:35:24;;;;;;;2.13;1.65;;;18.70;44.60;;;;;;4862617;29;20041;-43
2022/01/26 01:37:52;;;;;;;3.42;1.58;;;18.60;44.70;;;;;;4869993;29;20048;-43
2022/01/26 01:40:19;;;;;;;3.50;2.00;;;18.60;44.80;;;;;;4884512;29;20128;-44
2022/01/26 01:42:46;;;;;;;4.60;2.00;;;18.50;44.90;;;;;;4873491;29;20403;-43
2022/01/26 01:45:13;;;;;;;5.38;2.22;;;18.50;45.10;;;;;;4870438;29;20527;-44
2022/01/26 01:47:40;;;;;;;4.97;2.05;;;18.40;45.10;;;;;;4865656;29;20049;-44
2022/01/26 01:50:11;;;;;;;2.67;1.58;;;18.30;45.10;;;;;;4884823;29;20216;-44
2022/01/26 01:52:41;;;;;;;6.38;4.10;;;18.30;45.40;;;;;;4870661;29;20151;-43
2022/01/26 01:55:09;;;;;;;2.28;1.95;;;18.30;45.40;;;;;;4875980;29;20049;-42
2022/01/26 01:57:36;;;;;;;3.75;2.60;;;18.20;45.30;;;;;;4878359;29;20052;-43
2022/01/26 02:00:04;;;;;;;2.28;1.98;;;18.20;45.50;;;;;;4880795;29;20080;-41
2022/01/26 02:02:31;;;;;;;3.58;2.42;;;18.10;46.20;;;;;;4868654;29;20045;-42
2022/01/26 02:04:59;;;;;;;4.72;2.53;;;18.10;45.60;;;;;;4914683;28;20866;-44
2022/01/26 02:07:26;;;;;;;1.52;1.42;;;18.10;45.70;;;;;;4950385;29;20090;-42
2022/01/26 02:09:54;;;;;;;5.40;1.75;;;18.10;46.40;;;;;;4948098;28;20049;-42
2022/01/26 02:12:24;;;;;;;2.15;1.25;;;18.00;45.80;;;;;;4930623;29;20046;-42
2022/01/26 02:15:02;;;;;;;2.08;1.60;;;18.00;45.90;;;;;;4942262;28;20050;-43
2022/01/26 02:17:48;;;;;;;1.73;1.60;;;17.90;46.00;;;;;;4943522;28;20051;-42
2022/01/26 02:20:45;;;;;;;1.67;1.58;;;17.80;45.90;;;;;;4945788;28;20040;-47
2022/01/26 02:56:47;;;;;;;3.70;1.95;;;17.50;46.70;;;;;;4763949;30;20055;-47
2022/01/26 02:59:49;;;;;;;3.25;2.10;;;17.50;46.70;;;;;;4775059;29;20147;-44
2022/01/26 03:02:27;;;;;;;1.63;0.98;;;17.40;46.70;;;;;;4781187;29;20121;-49
2022/01/26 03:04:57;;;;;;;2.13;1.73;;;17.40;46.70;;;;;;4796189;29;20057;-50
2022/01/26 03:07:37;;;;;;;1.08;1.00;;;17.40;46.70;;;;;;4797304;29;20086;-45
2022/01/26 03:10:14;;;;;;;1.58;1.05;;;17.40;46.70;;;;;;4796671;29;20131;-44
2022/01/26 03:12:48;;;;;;;1.35;1.25;;;17.40;46.70;;;;;;4796056;29;20077;-48
2022/01/26 03:15:19;;;;;;;2.97;1.42;;;17.30;46.70;;;;;;4795741;29;20043;-48
2022/01/26 03:18:03;;;;;;;1.77;1.55;;;17.30;46.70;;;;;;4795656;29;20233;-48
2022/01/26 03:20:32;;;;;;;1.95;1.55;;;17.30;46.70;;;;;;4795633;29;20051;-48
2022/01/26 03:28:42;;;;;;;1.67;0.88;;;17.30;46.70;;;;;;4887829;29;20052;-43
2022/01/26 03:34:08;;;;;;;2.58;1.30;;;17.30;46.80;;;;;;4922894;29;20058;-43
2022/01/26 03:36:45;;;;;;;1.67;1.55;;;17.20;46.70;;;;;;4946240;28;20538;-44
2022/01/26 03:39:15;;;;;;;1.15;1.00;;;17.20;46.80;;;;;;4946630;28;20043;-51
2022/01/26 03:41:47;;;;;;;1.30;1.20;;;17.20;46.80;;;;;;4946776;28;20043;-47
2022/01/26 03:44:15;;;;;;;2.17;1.27;;;17.20;46.80;;;;;;4947079;28;20101;-51
2022/01/26 03:46:43;;;;;;;2.03;1.92;;;17.20;46.80;;;;;;4947300;28;20522;-45
2022/01/26 03:49:12;;;;;;;1.30;1.20;;;17.20;46.80;;;;;;4946815;29;20051;-45
2022/01/26 03:51:40;;;;;;;1.83;1.13;;;17.20;46.80;;;;;;4946063;28;20039;-44
2022/01/26 03:54:07;;;;;;;2.45;1.40;;;17.20;46.80;;;;;;4946787;28;20047;-49
2022/01/26 03:56:35;;;;;;;1.90;1.35;;;17.20;46.70;;;;;;4946543;28;20847;-48
2022/01/26 03:59:05;;;;;;;1.13;1.02;;;17.20;46.80;;;;;;4946864;28;20039;-48
2022/01/26 04:01:32;;;;;;;1.17;1.08;;;17.20;46.80;;;;;;4947695;28;20043;-45
2022/01/26 04:03:59;;;;;;;3.92;1.02;;;17.20;46.80;;;;;;4947654;28;20535;-43
2022/01/26 04:06:27;;;;;;;1.40;0.95;;;17.20;46.70;;;;;;4946621;28;20043;-45
2022/01/26 04:08:54;;;;;;;1.40;1.17;;;17.20;46.80;;;;;;4946459;28;20055;-46
2022/01/26 04:14:09;;;;;;;7.57;1.48;;;17.20;46.80;;;;;;4945050;28;20046;-49
2022/01/26 04:16:37;;;;;;;1.63;1.35;;;17.10;46.70;;;;;;4944319;28;20040;-43
2022/01/26 04:19:05;;;;;;;1.70;1.17;;;17.20;46.80;;;;;;4947280;28;20055;-44
2022/01/26 04:21:45;;;;;;;1.95;1.50;;;17.20;46.70;;;;;;4946564;28;20357;-45
2022/01/26 04:24:13;;;;;;;2.67;1.25;;;17.10;46.70;;;;;;4941879;28;20065;-43
2022/01/26 04:26:46;;;;;;;2.67;1.35;;;17.10;46.70;;;;;;4946112;28;20051;-43
2022/01/26 04:29:20;;;;;;;2.05;1.67;;;17.10;46.70;;;;;;4946590;28;20833;-46
2022/01/26 04:31:47;;;;;;;2.95;1.50;;;17.10;46.70;;;;;;4945968;28;20134;-45
2022/01/26 04:34:14;;;;;;;1.90;1.67;;;17.10;46.70;;;;;;4947816;29;20576;-43
2022/01/26 04:36:46;;;;;;;4.18;2.00;;;17.10;46.70;;;;;;4946483;28;20138;-46
2022/01/26 04:39:18;;;;;;;1.92;1.65;;;17.10;46.70;;;;;;4946247;28;20118;-43
2022/01/26 04:41:50;;;;;;;2.80;1.73;;;17.10;46.60;;;;;;4945903;28;20071;-47
2022/01/26 04:44:22;;;;;;;3.13;1.40;;;17.10;46.60;;;;;;4946264;28;20039;-44
2022/01/26 04:46:50;;;;;;;3.88;2.05;;;17.10;46.60;;;;;;4946333;28;20058;-45
2022/01/26 04:49:17;;;;;;;3.33;1.95;;;17.10;46.60;;;;;;4948708;28;20063;-47
2022/01/26 04:51:45;;;;;;;2.53;2.03;;;17.10;46.60;;;;;;4946117;28;20039;-45
2022/01/26 04:54:12;;;;;;;4.05;2.35;;;17.10;46.60;;;;;;4946100;28;20050;-51
2022/01/26 04:56:39;;;;;;;2.35;2.03;;;17.10;46.50;;;;;;4945774;28;20420;-49
2022/01/26 04:59:07;;;;;;;3.80;3.00;;;17.10;46.60;;;;;;4946319;28;20411;-43
2022/01/26 05:01:35;;;;;;;3.20;2.90;;;17.10;46.50;;;;;;4946705;28;20134;-47
2022/01/26 05:04:03;;;;;;;4.55;3.03;;;17.10;46.50;;;;;;4946603;28;20046;-45
2022/01/26 05:06:30;;;;;;;3.72;2.92;;;17.00;46.50;;;;;;4949397;28;20047;-46
2022/01/26 05:08:57;;;;;;;3.90;2.22;;;17.10;46.50;;;;;;4949232;28;20043;-48
2022/01/26 05:11:32;;;;;;;2.75;2.33;;;17.00;46.50;;;;;;4949340;28;20057;-44
2022/01/26 05:14:00;;;;;;;7.70;3.00;;;17.10;46.50;;;;;;4948619;28;20047;-45
2022/01/26 05:16:27;;;;;;;5.93;2.95;;;17.10;46.50;;;;;;4949960;28;20058;-47
2022/01/26 05:18:56;;;;;;;5.60;3.33;;;17.10;46.50;;;;;;4949443;28;20063;-46
2022/01/26 05:21:25;;;;;;;3.63;2.50;;;17.10;46.50;;;;;;4949313;28;20055;-45
2022/01/26 05:23:52;;;;;;;3.83;3.10;;;17.10;46.50;;;;;;4949447;28;20054;-45
2022/01/26 05:26:20;;;;;;;4.53;2.80;;;17.00;46.40;;;;;;4949391;28;20046;-45
2022/01/26 05:28:47;;;;;;;3.70;2.70;;;17.00;46.40;;;;;;4949220;28;20043;-50
2022/01/26 05:31:15;;;;;;;2.17;1.95;;;17.10;46.50;;;;;;4936300;29;20050;-51
2022/01/26 05:33:43;;;;;;;4.88;3.17;;;17.00;46.30;;;;;;4949070;28;20039;-47
2022/01/26 05:36:12;;;;;;;5.07;3.03;;;17.00;46.40;;;;;;4949553;28;20040;-50
2022/01/26 05:38:39;;;;;;;4.88;2.75;;;17.00;46.30;;;;;;4949103;28;20153;-46
2022/01/26 05:41:09;;;;;;;3.33;2.75;;;17.00;46.40;;;;;;4949371;28;20051;-48
2022/01/26 05:43:36;;;;;;;5.97;3.22;;;17.00;46.30;;;;;;4949641;28;20407;-45
2022/01/26 05:46:08;;;;;;;4.22;3.05;;;17.00;46.30;;;;;;4950520;28;20057;-44
2022/01/26 05:48:38;;;;;;;3.08;2.63;;;17.10;46.40;;;;;;4948553;28;20055;-46
2022/01/26 05:51:08;;;;;;;3.70;2.92;;;17.00;46.30;;;;;;4947821;28;20043;-45
2022/01/26 05:53:37;;;;;;;5.30;3.65;;;17.10;46.40;;;;;;4948885;28;20054;-44
2022/01/26 05:56:05;;;;;;;3.70;2.67;;;17.00;46.20;;;;;;4948805;28;20059;-50
2022/01/26 05:58:32;;;;;;;3.67;2.90;;;17.00;46.20;;;;;;4949296;28;20046;-48
2022/01/26 06:01:00;;;;;;;6.20;3.55;;;17.00;46.20;;;;;;4949698;28;20043;-50
2022/01/26 06:03:29;;;;;;;3.17;2.92;;;17.00;46.20;;;;;;4947280;28;20047;-45
2022/01/26 06:05:56;;;;;;;3.50;2.55;;;17.10;46.30;;;;;;4948637;28;20044;-47
2022/01/26 06:08:23;;;;;;;4.90;3.25;;;17.00;46.20;;;;;;4948311;28;20726;-46
2022/01/26 06:10:55;;;;;;;6.05;3.58;;;17.00;46.20;;;;;;4948549;28;20058;-44
2022/01/26 06:13:22;;;;;;;5.38;2.70;;;17.00;46.20;;;;;;4949946;29;20051;-43
2022/01/26 06:15:49;;;;;;;5.60;4.13;;;17.00;46.20;;;;;;4948181;28;20048;-44
2022/01/26 06:18:16;;;;;;;8.13;3.70;;;17.00;46.10;;;;;;4948114;28;20051;-43
2022/01/26 06:20:43;;;;;;;6.38;3.33;;;17.00;46.10;;;;;;4948242;28;20054;-42
2022/01/26 06:23:10;;;;;;;5.53;3.75;;;17.00;46.10;;;;;;4947020;28;20043;-44
2022/01/26 06:25:37;;;;;;;5.72;3.10;;;17.00;46.10;;;;;;4948547;28;20101;-49
2022/01/26 06:28:09;;;;;;;5.40;3.30;;;17.00;46.10;;;;;;4949183;28;20071;-45
2022/01/26 06:30:37;;;;;;;7.82;3.05;;;17.00;46.10;;;;;;4947738;28;20388;-43
2022/01/26 06:33:05;;;;;;;4.68;3.63;;;17.00;46.20;;;;;;4947963;28;20044;-47
2022/01/26 06:35:34;;;;;;;5.22;3.92;;;17.00;46.10;;;;;;4947941;28;20044;-44
2022/01/26 06:38:02;;;;;;;5.30;3.35;;;17.00;46.10;;;;;;4947586;28;20043;-47
2022/01/26 06:40:29;;;;;;;4.90;3.58;;;17.00;46.10;;;;;;4949792;29;20066;-48
2022/01/26 06:42:59;;;;;;;4.85;2.97;;;17.00;46.20;;;;;;4948377;28;20058;-45
2022/01/26 06:45:31;;;;;;;6.07;3.72;;;17.00;46.10;;;;;;4947116;28;20047;-43
2022/01/26 06:48:15;;;;;;;4.65;3.53;;;17.00;46.10;;;;;;4947524;28;20040;-45
2022/01/26 06:50:42;;;;;;;4.85;3.72;;;17.00;46.00;;;;;;4943391;28;20130;-48
2022/01/26 06:53:10;;;;;;;6.00;3.50;;;17.00;46.10;;;;;;4947411;28;20803;-45
2022/01/26 06:55:37;;;;;;;4.88;3.80;;;17.00;46.00;;;;;;4947488;28;20050;-44
2022/01/26 06:58:04;;;;;;;5.15;4.13;;;17.00;46.00;;;;;;4948124;28;20459;-43
2022/01/26 07:00:33;;;;;;;6.13;3.90;;;17.00;46.00;;;;;;4946598;28;20408;-45
2022/01/26 07:03:00;;;;;;;5.72;4.20;;;17.00;46.00;;;;;;4947090;28;20042;-43
2022/01/26 07:05:27;;;;;;;7.20;3.85;;;17.00;46.00;;;;;;4947486;28;20039;-46
2022/01/26 07:07:55;;;;;;;6.68;3.72;;;17.00;46.00;;;;;;4947269;28;20058;-44
2022/01/26 07:10:23;;;;;;;4.07;3.78;;;17.00;46.00;;;;;;4948947;29;20757;-47
2022/01/26 07:12:50;;;;;;;6.18;4.70;;;17.00;46.00;;;;;;4947225;28;20047;-44
2022/01/26 07:23:42;;;;;;;5.60;3.35;;;17.00;46.10;;;;;;4946930;28;20053;-44
2022/01/26 07:26:10;;;;;;;6.60;4.50;;;17.00;46.10;;;;;;4947032;28;20163;-48
2022/01/26 07:28:39;;;;;;;9.63;4.38;;;17.00;46.10;;;;;;4946370;28;20047;-45
2022/01/26 07:31:07;;;;;;;9.27;4.40;;;17.00;46.10;;;;;;4948167;28;20055;-43
2022/01/26 07:33:37;;;;;;;6.07;4.07;;;17.00;46.10;;;;;;4944198;28;20039;-49
2022/01/26 07:36:05;;;;;;;6.22;4.28;;;17.00;46.00;;;;;;4946662;28;20161;-44
2022/01/26 07:38:33;;;;;;;7.38;4.95;;;17.00;46.00;;;;;;4946336;28;20571;-47
2022/01/26 07:41:00;;;;;;;7.88;4.00;;;17.00;46.10;;;;;;4943509;28;20131;-45
2022/01/26 07:43:27;;;;;;;7.72;4.32;;;17.00;46.20;;;;;;4944835;29;20043;-47
2022/01/26 07:45:54;;;;;;;4.75;3.72;;;17.00;46.20;;;;;;4946443;28;20055;-45
2022/01/26 07:48:23;;;;;;;8.60;5.25;;;17.00;46.30;;;;;;4942948;28;20043;-46
2022/01/26 07:50:52;;;;;;;7.55;4.35;;;17.00;46.30;;;;;;4943703;28;20046;-50
2022/01/26 07:53:19;;;;;;;7.20;5.13;;;17.00;46.40;;;;;;4946402;28;20113;-49
2022/01/26 07:55:48;;;;;;;7.30;5.13;;;17.00;46.40;;;;;;4941918;28;20229;-49
2022/01/26 07:58:16;;;;;;;7.35;4.57;;;17.00;46.50;;;;;;4945814;28;20873;-48
2022/01/26 08:00:44;;;;;;;5.72;4.15;;;17.00;46.50;;;;;;4943905;28;20095;-50
2022/01/26 08:03:11;;;;;;;8.98;4.90;;;17.00;46.50;;;;;;4944376;28;20531;-46
2022/01/26 08:05:38;;;;;;;7.13;4.78;;;17.00;46.50;;;;;;4946674;28;20043;-50
2022/01/26 08:08:07;;;;;;;7.68;4.95;;;17.00;46.50;;;;;;4946189;28;20055;-45
2022/01/26 08:10:35;;;;;;;7.43;5.38;;;17.00;46.80;;;;;;4944876;28;20094;-48
2022/01/26 08:13:02;;;;;;;8.32;4.95;;;17.00;46.50;;;;;;4943511;28;20043;-48
2022/01/26 08:15:29;;;;;;;5.90;4.57;;;17.00;46.40;;;;;;4946529;28;20051;-48
2022/01/26 08:17:58;;;;;;;7.53;4.95;;;17.00;46.40;;;;;;4929062;29;20464;-49
2022/01/26 08:20:25;;;;;;;6.10;4.15;;;17.00;46.40;;;;;;4946554;28;20049;-48
2022/01/26 08:22:55;;;;;;;8.80;4.93;;;17.10;46.50;;;;;;4946544;28;20043;-48
2022/01/26 08:25:25;;;;;;;6.28;4.80;;;17.10;46.50;;;;;;4948198;29;20055;-49
2022/01/26 08:27:58;;;;;;;9.15;5.18;;;17.10;46.40;;;;;;4945599;28;20078;-50
2022/01/26 08:30:28;;;;;;;8.73;4.97;;;17.10;46.40;;;;;;4929110;29;20547;-52
2022/01/26 08:32:55;;;;;;;8.65;4.50;;;17.10;46.40;;;;;;4931697;29;20516;-46
2022/01/26 08:35:22;;;;;;;7.85;4.68;;;17.10;46.40;;;;;;4946013;28;20130;-48
2022/01/26 08:37:50;;;;;;;7.55;4.95;;;17.10;46.40;;;;;;4945783;28;20070;-50
2022/01/26 08:40:17;;;;;;;6.75;4.55;;;17.10;46.40;;;;;;4949660;28;20046;-57
2022/01/26 08:42:46;;;;;;;7.47;5.05;;;17.10;46.40;;;;;;4943929;28;20043;-50
2022/01/26 08:45:14;;;;;;;8.80;5.28;;;17.10;46.50;;;;;;4949783;28;20080;-52
2022/01/26 08:47:41;;;;;;;5.10;3.85;;;17.10;46.50;;;;;;4949333;28;20098;-53
2022/01/26 08:50:09;;;;;;;8.07;4.47;;;17.10;46.40;;;;;;4950138;28;20043;-51
2022/01/26 08:52:37;;;;;;;9.07;5.18;;;17.10;46.40;;;;;;4949935;28;20050;-48
2022/01/26 08:55:06;;;;;;;6.50;4.50;;;17.10;46.40;;;;;;4950551;28;20039;-50
2022/01/26 08:57:33;;;;;;;11.25;5.32;;;17.10;47.00;;;;;;4949006;28;20050;-49
2022/01/26 09:00:01;;;;;;;7.18;4.80;;;17.10;46.60;;;;;;4949923;28;20094;-49
2022/01/26 09:02:28;;;;;;;9.85;4.97;;;17.10;46.40;;;;;;4948249;28;20149;-53
2022/01/26 09:04:56;;;;;;;8.52;5.55;;;17.20;46.40;;;;;;4949593;28;20039;-54
2022/01/26 09:07:23;;;;;;;8.18;4.93;;;17.20;46.40;;;;;;4933779;29;20058;-52
2022/01/26 09:09:50;;;;;;;6.72;5.03;;;17.20;46.30;;;;;;4946377;28;20511;-48
2022/01/26 09:12:19;;;;;;;7.82;4.72;;;17.20;46.30;;;;;;4947856;28;20582;-50
2022/01/26 09:14:48;;;;;;;6.85;4.72;;;17.20;46.30;;;;;;4949809;28;20441;-50
2022/01/26 09:17:16;;;;;;;7.03;4.55;;;17.20;46.30;;;;;;4948311;28;20039;-47
2022/01/26 09:19:45;;;;;;;6.55;4.07;;;17.20;46.30;;;;;;4949276;28;20054;-50
2022/01/26 09:22:14;;;;;;;8.73;5.65;;;17.20;46.30;;;;;;4947779;29;20047;-50
2022/01/26 09:24:43;;;;;;;11.82;4.35;;;17.20;46.30;;;;;;4946568;28;20047;-44
2022/01/26 09:27:14;;;;;;;8.38;5.50;;;17.20;46.30;;;;;;4947826;28;20047;-46
2022/01/26 09:29:43;;;;;;;13.93;6.10;;;17.20;46.60;;;;;;4949049;28;20032;-48
2022/01/26 09:32:11;;;;;;;8.45;4.47;;;17.30;46.70;;;;;;4949268;28;20035;-57
2022/01/26 09:34:41;;;;;;;8.82;4.93;;;17.20;46.70;;;;;;4949112;28;20050;-50
2022/01/26 09:37:12;;;;;;;5.55;4.10;;;17.30;46.80;;;;;;4948494;28;20043;-54
2022/01/26 09:39:40;;;;;;;7.75;5.13;;;17.30;46.80;;;;;;4945898;28;20047;-58
2022/01/26 09:42:08;;;;;;;10.50;6.43;;;17.40;46.80;;;;;;4949096;28;20047;-58
2022/01/26 09:44:35;;;;;;;8.57;5.57;;;17.40;46.70;;;;;;4947806;28;20063;-55
2022/01/26 09:47:04;;;;;;;8.07;5.43;;;17.40;46.70;;;;;;4949268;28;20474;-57
2022/01/26 09:49:33;;;;;;;8.55;5.13;;;17.40;46.70;;;;;;4950466;28;20065;-55
2022/01/26 09:52:06;;;;;;;7.93;5.10;;;17.40;46.60;;;;;;4949723;28;20046;-58
2022/01/26 09:54:34;;;;;;;10.00;5.05;;;17.40;46.50;;;;;;4946590;29;20575;-56
2022/01/26 09:57:03;;;;;;;9.82;5.68;;;17.40;46.50;;;;;;4948586;28;20044;-57
2022/01/26 09:59:32;;;;;;;10.90;6.13;;;17.50;46.50;;;;;;4942364;28;20059;-58
2022/01/26 10:02:01;;;;;;;10.02;4.93;;;17.50;46.50;;;;;;4948098;28;20039;-57
2022/01/26 10:04:33;;;;;;;9.90;5.55;;;17.50;46.40;;;;;;4946604;29;20069;-58
2022/01/26 10:07:16;;;;;;;8.48;5.22;;;17.50;46.40;;;;;;4949415;28;20511;-59
2022/01/26 10:10:05;;;;;;;8.73;4.95;;;17.50;46.40;;;;;;4948504;28;20055;-57
2022/01/26 10:15:35;;;;;;;8.38;5.20;;;17.50;46.30;;;;;;4948623;28;20178;-53
2022/01/26 10:18:08;;;;;;;16.00;6.78;;;17.50;46.30;;;;;;4948084;28;20050;-48
2022/01/26 10:20:40;;;;;;;6.80;4.97;;;17.60;46.90;;;;;;4946288;28;20166;-45
2022/01/26 10:23:12;;;;;;;10.13;4.95;;;17.60;46.30;;;;;;4947763;28;20043;-47
2022/01/26 10:25:42;;;;;;;7.35;4.90;;;17.60;46.90;;;;;;4946074;28;20106;-42
2022/01/26 10:28:11;;;;;;;6.90;5.40;;;17.60;46.20;;;;;;4949402;28;20078;-46
2022/01/26 10:30:45;;;;;;;6.93;4.68;;;17.60;46.20;;;;;;4947743;28;20065;-45
2022/01/26 10:33:13;;;;;;;9.55;5.53;;;17.60;46.20;;;;;;4940825;28;20032;-43
2022/01/26 10:35:41;;;;;;;8.93;5.18;;;17.60;46.10;;;;;;4930475;29;20032;-49
2022/01/26 10:38:09;;;;;;;7.88;4.88;;;17.60;46.10;;;;;;4947656;28;20126;-50
2022/01/26 10:40:39;;;;;;;9.93;5.72;;;17.60;46.10;;;;;;4947888;28;20037;-47
2022/01/26 10:43:11;;;;;;;9.23;4.43;;;17.60;46.00;;;;;;4948532;28;20062;-51
2022/01/26 10:45:52;;;;;;;7.60;5.60;;;17.70;46.00;;;;;;4945884;28;20043;-48
2022/01/26 10:48:27;;;;;;;7.15;4.55;;;17.70;46.00;;;;;;4946171;28;20035;-47
2022/01/26 10:54:09;;;;;;;8.18;4.85;;;17.70;46.20;;;;;;4946182;28;20046;-44
2022/01/26 10:56:37;;;;;;;10.88;4.85;;;17.70;45.90;;;;;;4946507;28;20150;-58
2022/01/26 10:59:04;;;;;;;8.85;5.30;;;17.70;45.90;;;;;;4948127;28;20134;-59
2022/01/26 11:01:31;;;;;;;14.43;5.10;;;17.70;45.90;;;;;;4949995;28;20051;-61
2022/01/26 11:03:59;;;;;;;8.43;5.25;;;17.70;45.90;;;;;;4949413;28;20154;-62
2022/01/26 11:06:28;;;;;;;10.68;5.57;;;17.70;45.90;;;;;;4947769;28;20076;-59
2022/01/26 11:09:07;;;;;;;8.75;5.90;;;17.70;45.80;;;;;;4947974;28;20058;-57
2022/01/26 11:11:35;;;;;;;12.05;6.05;;;17.70;45.80;;;;;;4946515;28;20542;-59
2022/01/26 11:14:13;;;;;;;13.20;5.25;;;17.70;45.80;;;;;;4947204;28;20040;-48
2022/01/26 11:16:49;;;;;;;10.27;5.90;;;17.80;45.70;;;;;;4945751;28;20043;-43
2022/01/26 11:19:16;;;;;;;15.52;6.57;;;17.80;45.60;;;;;;4948713;29;20054;-47
2022/01/26 11:21:44;;;;;;;8.18;6.53;;;17.70;45.40;;;;;;4946295;28;20051;-42
2022/01/26 11:24:18;;;;;;;10.05;5.43;;;17.70;45.30;;;;;;4947017;28;20043;-45
2022/01/26 11:26:47;;;;;;;11.75;4.53;;;17.70;45.10;;;;;;4947142;28;20118;-42
2022/01/26 11:29:20;;;;;;;14.65;5.70;;;17.70;45.10;;;;;;4947314;28;20039;-44
2022/01/26 11:31:59;;;;;;;10.90;4.18;;;17.70;45.00;;;;;;4945606;28;20090;-44
2022/01/26 11:34:27;;;;;;;9.50;4.65;;;17.70;45.00;;;;;;4948902;29;20135;-47
2022/01/26 11:36:59;;;;;;;8.85;4.75;;;17.70;44.90;;;;;;4946630;28;20042;-43
2022/01/26 11:42:34;;;;;;;12.18;6.22;;;17.70;44.20;;;;;;4935488;28;20046;-53
2022/01/26 11:45:09;;;;;;;10.88;6.30;;;17.60;44.10;;;;;;4938378;28;20039;-65
2022/01/26 11:47:39;;;;;;;10.27;6.20;;;17.60;44.30;;;;;;4939758;28;20043;-61
2022/01/26 11:50:12;;;;;;;10.95;5.47;;;17.50;44.60;;;;;;4939854;28;20491;-54
2022/01/26 11:52:40;;;;;;;9.50;5.35;;;17.50;45.50;;;;;;4939901;28;20047;-58
2022/01/26 11:55:26;;;;;;;10.73;6.78;;;17.50;44.90;;;;;;4936111;29;20075;-55
2022/01/26 11:57:55;;;;;;;9.00;5.85;;;17.50;45.00;;;;;;4941758;28;20046;-60
2022/01/26 12:00:39;;;;;;;13.32;6.13;;;17.40;45.10;;;;;;4940782;28;20047;-59
2022/01/26 12:03:10;;;;;;;9.50;5.65;;;17.50;45.00;;;;;;4941665;28;20040;-59
2022/01/26 12:05:47;;;;;;;11.85;5.88;;;17.50;44.80;;;;;;4937026;28;20504;-58
2022/01/26 12:08:15;;;;;;;8.20;4.82;;;17.60;44.60;;;;;;4939124;28;20050;-65
2022/01/26 12:10:45;;;;;;;13.85;5.20;;;17.60;44.40;;;;;;4942094;28;20051;-57
2022/01/26 12:13:16;;;;;;;9.45;5.20;;;17.70;44.50;;;;;;4943628;29;20058;-57
2022/01/26 12:15:49;;;;;;;6.85;4.90;;;17.70;44.40;;;;;;4937784;29;20134;-56
2022/01/26 12:18:28;;;;;;;17.02;5.90;;;17.80;44.30;;;;;;4941158;29;20043;-57
2022/01/26 12:35:14;;;;;;;9.73;5.60;;;18.10;43.50;;;;;;4940574;28;20866;-57
2022/01/26 12:37:52;;;;;;;6.65;5.05;;;18.20;43.30;;;;;;4938085;29;20095;-57
2022/01/26 12:43:20;;;;;;;10.40;4.90;;;18.30;43.00;;;;;;4941608;28;20150;-57
2022/01/26 12:45:54;;;;;;;8.55;5.35;;;18.30;42.80;;;;;;4936717;28;20507;-57
2022/01/26 12:48:23;;;;;;;10.82;5.82;;;18.30;42.70;;;;;;4937110;28;20035;-57
2022/01/26 12:50:50;;;;;;;9.80;6.00;;;18.30;42.60;;;;;;4939272;28;20130;-54
2022/01/26 12:53:25;;;;;;;7.63;5.78;;;18.40;42.60;;;;;;4938903;28;20788;-55
2022/01/26 12:55:57;;;;;;;9.85;5.88;;;18.40;42.50;;;;;;4937157;28;20110;-57
2022/01/26 12:58:28;;;;;;;11.70;6.03;;;18.40;42.30;;;;;;4942118;28;20043;-57
2022/01/26 13:01:01;;;;;;;13.70;6.25;;;18.50;42.60;;;;;;4937302;28;20047;-57
2022/01/26 13:03:31;;;;;;;14.45;5.38;;;18.50;42.00;;;;;;4942869;28;20063;-51
2022/01/26 13:06:06;;;;;;;7.88;4.55;;;18.60;42.70;;;;;;4945679;28;20140;-47
2022/01/26 13:08:43;;;;;;;10.35;6.22;;;18.60;43.10;;;;;;4946101;28;20051;-55
2022/01/26 13:11:10;;;;;;;7.40;4.20;;;18.60;43.60;;;;;;4940736;28;20504;-48
2022/01/26 13:13:39;;;;;;;11.30;5.50;;;18.60;43.70;;;;;;4947184;28;20053;-51
2022/01/26 13:16:18;;;;;;;9.30;4.90;;;18.60;43.90;;;;;;4931942;29;20044;-53
2022/01/26 13:19:10;;;;;;;7.10;4.57;;;18.50;44.00;;;;;;4929011;29;20051;-50
2022/01/26 13:21:57;;;;;;;8.73;5.00;;;18.50;44.10;;;;;;4946316;28;20043;-47
2022/01/26 13:24:53;;;;;;;6.93;5.30;;;18.40;44.20;;;;;;4945939;28;20424;-46
2022/01/26 13:27:33;;;;;;;7.55;4.78;;;18.40;44.30;;;;;;4949517;28;20051;-46
2022/01/26 13:30:18;;;;;;;8.88;5.18;;;18.30;44.40;;;;;;4949729;28;20047;-54
2022/01/26 13:33:16;;;;;;;12.13;5.60;;;18.30;44.50;;;;;;4944912;29;20049;-53
2022/01/26 13:35:53;;;;;;;15.88;6.97;;;18.20;44.60;;;;;;4949506;28;20093;-54
2022/01/26 13:38:32;;;;;;;8.35;5.03;;;18.10;44.70;;;;;;4949455;28;20086;-54
2022/01/26 13:41:08;;;;;;;8.35;4.95;;;18.10;44.80;;;;;;4950206;28;20559;-52
2022/01/26 13:49:38;;;;;;;7.30;4.57;;;17.90;45.00;;;;;;4949292;28;20055;-53
2022/01/26 13:52:19;;;;;;;9.93;4.47;;;17.90;45.00;;;;;;4949218;28;20822;-57
2022/01/26 13:57:45;;;;;;;7.80;5.45;;;17.80;45.20;;;;;;4944841;28;20111;-53
2022/01/26 14:00:16;;;;;;;9.90;5.00;;;17.80;45.20;;;;;;4947280;28;20469;-53
2022/01/26 14:02:48;;;;;;;8.73;4.93;;;17.80;45.30;;;;;;4949292;28;20385;-48
2022/01/26 14:05:15;;;;;;;6.50;5.13;;;17.70;45.30;;;;;;4948901;29;20520;-49
2022/01/26 14:07:42;;;;;;;8.35;5.57;;;17.70;45.30;;;;;;4948491;28;20122;-47
2022/01/26 14:10:10;;;;;;;8.60;5.43;;;17.70;45.50;;;;;;4949849;28;20113;-54
2022/01/26 14:12:41;;;;;;;12.90;5.95;;;17.70;45.60;;;;;;4948142;28;20044;-56
2022/01/26 14:15:09;;;;;;;10.57;5.15;;;17.60;45.70;;;;;;4948308;28;20055;-39
2022/01/26 14:17:53;;;;;;;6.72;3.58;;;17.60;45.70;;;;;;4948662;28;20039;-40
2022/01/26 14:20:42;;;;;;;6.60;4.30;;;17.60;45.60;;;;;;4948762;28;20043;-61
2022/01/26 14:26:05;;;;;;;10.45;4.80;;;17.60;45.90;;;;;;4926754;29;20077;-50
2022/01/26 14:28:35;;;;;;;11.73;4.63;;;17.50;46.00;;;;;;4924391;29;20064;-52
2022/01/26 14:31:30;;;;;;;8.13;5.18;;;17.50;46.10;;;;;;4927872;29;20044;-51
2022/01/26 14:36:52;;;;;;;10.27;5.35;;;17.40;46.20;;;;;;4923721;29;20572;-51
2022/01/26 14:53:48;;;;;;;6.68;4.90;;;17.30;46.50;;;;;;4923094;29;20441;-53
2022/01/26 14:56:14;;;;;;;7.57;5.03;;;17.30;46.60;;;;;;4924211;29;20043;-56
2022/01/26 15:35:20;;;;;;;7.00;3.22;;;17.00;47.20;;;;;;4870630;29;20152;-42
2022/01/26 15:40:47;;;;;;;7.95;4.20;;;17.00;47.30;;;;;;4866578;29;20068;-43
2022/01/26 15:48:52;;;;;;;10.90;4.50;;;17.10;47.50;;;;;;4830229;29;20058;-39
2022/01/26 15:51:46;;;;;;;10.73;3.72;;;17.10;47.40;;;;;;4831471;29;20138;-39
2022/01/26 16:08:24;;;;;;;10.70;3.47;;;17.30;47.10;;;;;;4780110;29;20074;-39